sensor_id;sensor_type;location;lat;lon;timestamp;pressure;altitude;pressure_sealevel;temperature;humidity
58072;BME280;60383;46.626;18.866;2023-02-02T00:02:01;100405.94;;;4.15;71.65
58072;BME280;60383;46.626;18.866;2023-02-02T00:04:29;100408.78;;;4.13;71.33
58072;BME280;60383;46.626;18.866;2023-02-02T00:06:55;100393.00;;;4.07;72.10
58072;BME280;60383;46.626;18.866;2023-02-02T00:09:26;100391.13;;;3.83;72.49
58072;BME280;60383;46.626;18.866;2023-02-02T00:11:53;100394.44;;;4.00;71.77
58072;BME280;60383;46.626;18.866;2023-02-02T00:14:19;100398.13;;;3.99;71.92
58072;BME280;60383;46.626;18.866;2023-02-02T00:16:54;100387.50;;;3.96;71.98
58072;BME280;60383;46.626;18.866;2023-02-02T00:19:27;100398.91;;;4.12;70.72
58072;BME280;60383;46.626;18.866;2023-02-02T00:21:55;100390.78;;;4.12;71.25
58072;BME280;60383;46.626;18.866;2023-02-02T00:24:21;100381.16;;;4.08;71.43
58072;BME280;60383;46.626;18.866;2023-02-02T00:26:50;100381.00;;;4.34;70.74
58072;BME280;60383;46.626;18.866;2023-02-02T00:29:27;100383.03;;;4.19;70.46
58072;BME280;60383;46.626;18.866;2023-02-02T00:31:53;100380.59;;;4.27;70.51
58072;BME280;60383;46.626;18.866;2023-02-02T00:34:19;100383.00;;;4.43;70.38
58072;BME280;60383;46.626;18.866;2023-02-02T00:36:45;100373.66;;;4.59;69.05
58072;BME280;60383;46.626;18.866;2023-02-02T00:39:14;100370.72;;;4.62;69.07
58072;BME280;60383;46.626;18.866;2023-02-02T00:41:40;100368.84;;;4.51;69.43
58072;BME280;60383;46.626;18.866;2023-02-02T00:44:06;100358.38;;;4.58;69.31
58072;BME280;60383;46.626;18.866;2023-02-02T00:46:50;100354.69;;;4.59;69.36
58072;BME280;60383;46.626;18.866;2023-02-02T00:49:15;100345.41;;;4.39;69.79
58072;BME280;60383;46.626;18.866;2023-02-02T00:51:41;100355.50;;;4.48;69.26
58072;BME280;60383;46.626;18.866;2023-02-02T00:54:06;100347.50;;;4.46;68.92
58072;BME280;60383;46.626;18.866;2023-02-02T00:56:32;100348.00;;;4.52;68.99
58072;BME280;60383;46.626;18.866;2023-02-02T00:58:57;100343.69;;;4.49;68.70
58072;BME280;60383;46.626;18.866;2023-02-02T01:01:23;100341.94;;;4.48;69.87
58072;BME280;60383;46.626;18.866;2023-02-02T01:03:49;100343.66;;;4.38;69.62
58072;BME280;60383;46.626;18.866;2023-02-02T01:06:16;100340.66;;;4.76;68.08
58072;BME280;60383;46.626;18.866;2023-02-02T01:08:41;100338.66;;;4.67;68.63
58072;BME280;60383;46.626;18.866;2023-02-02T01:11:07;100335.31;;;4.63;67.97
58072;BME280;60383;46.626;18.866;2023-02-02T01:13:33;100336.69;;;4.80;67.88
58072;BME280;60383;46.626;18.866;2023-02-02T01:16:00;100337.16;;;4.52;68.61
58072;BME280;60383;46.626;18.866;2023-02-02T01:18:27;100342.84;;;4.60;68.87
58072;BME280;60383;46.626;18.866;2023-02-02T01:23:22;100342.50;;;4.76;68.69
58072;BME280;60383;46.626;18.866;2023-02-02T01:25:59;100341.38;;;4.78;68.31
58072;BME280;60383;46.626;18.866;2023-02-02T01:28:25;100344.34;;;4.98;67.25
58072;BME280;60383;46.626;18.866;2023-02-02T01:30:51;100349.03;;;5.07;66.56
58072;BME280;60383;46.626;18.866;2023-02-02T01:33:17;100338.66;;;5.24;65.57
58072;BME280;60383;46.626;18.866;2023-02-02T01:35:47;100333.72;;;5.29;65.80
58072;BME280;60383;46.626;18.866;2023-02-02T01:38:14;100340.28;;;5.04;65.99
58072;BME280;60383;46.626;18.866;2023-02-02T01:40:53;100327.16;;;5.32;65.63
58072;BME280;60383;46.626;18.866;2023-02-02T01:43:48;100317.47;;;5.18;66.57
58072;BME280;60383;46.626;18.866;2023-02-02T01:48:47;100308.44;;;5.28;67.14
58072;BME280;60383;46.626;18.866;2023-02-02T01:51:16;100308.28;;;5.19;67.03
58072;BME280;60383;46.626;18.866;2023-02-02T01:53:44;100316.06;;;5.23;66.32
58072;BME280;60383;46.626;18.866;2023-02-02T01:56:14;100316.16;;;5.33;66.40
58072;BME280;60383;46.626;18.866;2023-02-02T01:58:42;100311.50;;;5.35;66.90
58072;BME280;60383;46.626;18.866;2023-02-02T02:01:10;100324.22;;;5.35;66.91
58072;BME280;60383;46.626;18.866;2023-02-02T02:03:36;100315.19;;;5.34;66.92
58072;BME280;60383;46.626;18.866;2023-02-02T02:06:07;100325.84;;;5.15;67.40
58072;BME280;60383;46.626;18.866;2023-02-02T02:08:39;100320.00;;;5.31;66.58
58072;BME280;60383;46.626;18.866;2023-02-02T02:11:05;100304.34;;;5.23;66.62
58072;BME280;60383;46.626;18.866;2023-02-02T02:13:34;100303.63;;;5.21;66.92
58072;BME280;60383;46.626;18.866;2023-02-02T02:39:09;100357.56;;;5.25;67.49
58072;BME280;60383;46.626;18.866;2023-02-02T02:41:42;100370.66;;;5.20;68.06
58072;BME280;60383;46.626;18.866;2023-02-02T02:44:13;100380.00;;;5.16;68.55
58072;BME280;60383;46.626;18.866;2023-02-02T02:46:40;100395.81;;;5.11;69.36
58072;BME280;60383;46.626;18.866;2023-02-02T02:49:09;100408.66;;;5.20;69.87
58072;BME280;60383;46.626;18.866;2023-02-02T02:51:48;100404.94;;;4.99;71.51
58072;BME280;60383;46.626;18.866;2023-02-02T02:54:27;100410.59;;;4.95;72.60
58072;BME280;60383;46.626;18.866;2023-02-02T03:02:16;100423.25;;;4.72;76.17
58072;BME280;60383;46.626;18.866;2023-02-02T03:05:00;100426.28;;;4.45;77.40
58072;BME280;60383;46.626;18.866;2023-02-02T03:08:19;100435.69;;;4.52;77.71
58072;BME280;60383;46.626;18.866;2023-02-02T03:10:25;100440.19;;;4.40;78.30
58072;BME280;60383;46.626;18.866;2023-02-02T03:12:53;100452.34;;;4.35;78.50
58072;BME280;60383;46.626;18.866;2023-02-02T03:15:19;100456.63;;;4.26;79.86
58072;BME280;60383;46.626;18.866;2023-02-02T03:17:45;100472.69;;;4.29;80.83
58072;BME280;60383;46.626;18.866;2023-02-02T03:20:12;100489.63;;;4.20;81.44
58072;BME280;60383;46.626;18.866;2023-02-02T03:22:38;100484.50;;;4.28;82.36
58072;BME280;60383;46.626;18.866;2023-02-02T03:25:04;100482.59;;;3.93;83.08
58072;BME280;60383;46.626;18.866;2023-02-02T03:27:30;100477.91;;;3.95;84.99
58072;BME280;60383;46.626;18.866;2023-02-02T03:29:56;100473.13;;;3.98;86.30
58072;BME280;60383;46.626;18.866;2023-02-02T03:32:22;100478.09;;;4.05;85.94
58072;BME280;60383;46.626;18.866;2023-02-02T03:34:47;100477.75;;;4.09;85.46
58072;BME280;60383;46.626;18.866;2023-02-02T03:37:13;100478.19;;;4.03;86.12
58072;BME280;60383;46.626;18.866;2023-02-02T03:39:38;100481.50;;;3.95;86.41
58072;BME280;60383;46.626;18.866;2023-02-02T03:42:04;100471.88;;;3.91;87.20
58072;BME280;60383;46.626;18.866;2023-02-02T03:44:29;100467.63;;;3.87;87.23
58072;BME280;60383;46.626;18.866;2023-02-02T03:46:55;100475.78;;;3.74;88.05
58072;BME280;60383;46.626;18.866;2023-02-02T03:49:20;100474.94;;;3.74;88.40
58072;BME280;60383;46.626;18.866;2023-02-02T03:51:46;100459.84;;;3.82;88.02
58072;BME280;60383;46.626;18.866;2023-02-02T03:54:12;100463.13;;;3.75;88.36
58072;BME280;60383;46.626;18.866;2023-02-02T03:56:37;100450.22;;;3.78;88.84
58072;BME280;60383;46.626;18.866;2023-02-02T03:59:03;100441.22;;;3.78;88.94
58072;BME280;60383;46.626;18.866;2023-02-02T04:01:28;100438.94;;;3.84;88.51
58072;BME280;60383;46.626;18.866;2023-02-02T04:03:55;100435.16;;;3.74;88.57
58072;BME280;60383;46.626;18.866;2023-02-02T04:06:21;100424.94;;;3.78;89.26
58072;BME280;60383;46.626;18.866;2023-02-02T04:08:47;100427.72;;;3.65;89.22
58072;BME280;60383;46.626;18.866;2023-02-02T04:11:12;100449.50;;;3.63;88.71
58072;BME280;60383;46.626;18.866;2023-02-02T04:13:38;100450.81;;;3.58;89.14
58072;BME280;60383;46.626;18.866;2023-02-02T04:16:04;100447.59;;;3.53;89.39
58072;BME280;60383;46.626;18.866;2023-02-02T04:18:30;100443.44;;;3.60;89.23
58072;BME280;60383;46.626;18.866;2023-02-02T04:20:59;100443.13;;;3.51;89.42
58072;BME280;60383;46.626;18.866;2023-02-02T04:23:26;100436.75;;;3.53;89.32
58072;BME280;60383;46.626;18.866;2023-02-02T04:25:52;100431.22;;;3.41;90.04
58072;BME280;60383;46.626;18.866;2023-02-02T04:28:18;100423.22;;;3.40;89.45
58072;BME280;60383;46.626;18.866;2023-02-02T04:30:44;100424.31;;;3.37;88.87
58072;BME280;60383;46.626;18.866;2023-02-02T04:33:09;100419.69;;;3.26;89.65
58072;BME280;60383;46.626;18.866;2023-02-02T04:35:35;100411.22;;;3.31;89.67
58072;BME280;60383;46.626;18.866;2023-02-02T04:38:00;100416.97;;;3.26;90.06
58072;BME280;60383;46.626;18.866;2023-02-02T04:40:26;100429.00;;;3.09;90.47
58072;BME280;60383;46.626;18.866;2023-02-02T04:42:51;100435.72;;;3.16;90.55
58072;BME280;60383;46.626;18.866;2023-02-02T04:45:17;100415.03;;;3.28;89.78
58072;BME280;60383;46.626;18.866;2023-02-02T04:47:42;100400.19;;;3.21;90.55
58072;BME280;60383;46.626;18.866;2023-02-02T04:50:08;100400.84;;;2.99;90.90
58072;BME280;60383;46.626;18.866;2023-02-02T04:52:34;100397.94;;;2.89;91.46
58072;BME280;60383;46.626;18.866;2023-02-02T04:54:59;100388.75;;;3.04;91.19
58072;BME280;60383;46.626;18.866;2023-02-02T04:57:25;100384.88;;;2.70;91.48
58072;BME280;60383;46.626;18.866;2023-02-02T04:59:51;100385.25;;;3.02;91.46
58072;BME280;60383;46.626;18.866;2023-02-02T05:02:16;100383.84;;;3.10;91.01
58072;BME280;60383;46.626;18.866;2023-02-02T05:04:42;100381.63;;;2.91;91.83
58072;BME280;60383;46.626;18.866;2023-02-02T05:07:07;100387.13;;;3.02;91.61
58072;BME280;60383;46.626;18.866;2023-02-02T05:09:33;100408.88;;;2.75;92.66
58072;BME280;60383;46.626;18.866;2023-02-02T05:11:58;100404.78;;;2.69;93.05
58072;BME280;60383;46.626;18.866;2023-02-02T05:14:24;100406.69;;;2.93;91.80
58072;BME280;60383;46.626;18.866;2023-02-02T05:16:49;100403.16;;;2.92;92.28
58072;BME280;60383;46.626;18.866;2023-02-02T05:19:15;100400.84;;;2.47;93.73
58072;BME280;60383;46.626;18.866;2023-02-02T05:21:43;100413.41;;;2.74;92.90
58072;BME280;60383;46.626;18.866;2023-02-02T05:24:14;100402.91;;;2.69;91.61
58072;BME280;60383;46.626;18.866;2023-02-02T05:26:39;100427.47;;;2.79;91.70
58072;BME280;60383;46.626;18.866;2023-02-02T05:29:05;100423.06;;;2.91;91.10
58072;BME280;60383;46.626;18.866;2023-02-02T05:31:31;100429.88;;;2.84;91.65
58072;BME280;60383;46.626;18.866;2023-02-02T05:33:57;100437.44;;;2.79;90.94
58072;BME280;60383;46.626;18.866;2023-02-02T05:36:23;100449.47;;;2.87;91.11
58072;BME280;60383;46.626;18.866;2023-02-02T05:38:48;100454.13;;;3.11;89.39
58072;BME280;60383;46.626;18.866;2023-02-02T05:41:14;100456.06;;;2.96;89.39
58072;BME280;60383;46.626;18.866;2023-02-02T05:43:39;100448.59;;;3.00;89.97
58072;BME280;60383;46.626;18.866;2023-02-02T05:46:05;100435.38;;;3.08;88.94
58072;BME280;60383;46.626;18.866;2023-02-02T05:48:30;100447.41;;;2.91;89.46
58072;BME280;60383;46.626;18.866;2023-02-02T05:53:32;100458.44;;;3.01;89.38
58072;BME280;60383;46.626;18.866;2023-02-02T05:55:58;100462.88;;;3.02;89.09
58072;BME280;60383;46.626;18.866;2023-02-02T05:58:23;100454.13;;;3.11;88.09
58072;BME280;60383;46.626;18.866;2023-02-02T06:00:50;100454.97;;;2.86;88.56
58072;BME280;60383;46.626;18.866;2023-02-02T06:03:15;100460.13;;;2.63;89.99
58072;BME280;60383;46.626;18.866;2023-02-02T06:05:40;100460.53;;;2.44;90.56
58072;BME280;60383;46.626;18.866;2023-02-02T06:08:06;100457.09;;;2.55;91.18
58072;BME280;60383;46.626;18.866;2023-02-02T06:10:31;100457.97;;;2.55;90.37
58072;BME280;60383;46.626;18.866;2023-02-02T06:12:57;100460.81;;;2.80;89.59
58072;BME280;60383;46.626;18.866;2023-02-02T06:15:23;100461.81;;;2.92;89.81
58072;BME280;60383;46.626;18.866;2023-02-02T06:17:49;100462.31;;;2.84;89.40
58072;BME280;60383;46.626;18.866;2023-02-02T06:20:14;100455.41;;;2.93;89.05
58072;BME280;60383;46.626;18.866;2023-02-02T06:22:40;100454.97;;;2.73;89.07
58072;BME280;60383;46.626;18.866;2023-02-02T06:25:07;100447.28;;;2.67;89.23
58072;BME280;60383;46.626;18.866;2023-02-02T06:27:33;100449.56;;;2.86;89.09
58072;BME280;60383;46.626;18.866;2023-02-02T06:29:58;100451.00;;;2.92;88.92
58072;BME280;60383;46.626;18.866;2023-02-02T06:32:23;100454.34;;;3.08;87.18
58072;BME280;60383;46.626;18.866;2023-02-02T06:34:49;100453.69;;;3.04;87.03
58072;BME280;60383;46.626;18.866;2023-02-02T06:37:14;100451.06;;;3.16;86.40
58072;BME280;60383;46.626;18.866;2023-02-02T06:39:40;100456.94;;;2.97;87.22
58072;BME280;60383;46.626;18.866;2023-02-02T06:42:05;100456.50;;;3.03;86.89
58072;BME280;60383;46.626;18.866;2023-02-02T06:44:31;100454.34;;;3.08;86.44
58072;BME280;60383;46.626;18.866;2023-02-02T06:46:56;100448.28;;;3.04;87.23
58072;BME280;60383;46.626;18.866;2023-02-02T06:49:22;100450.34;;;3.14;86.22
58072;BME280;60383;46.626;18.866;2023-02-02T06:51:48;100455.09;;;3.10;85.93
58072;BME280;60383;46.626;18.866;2023-02-02T06:54:13;100463.84;;;3.27;85.66
58072;BME280;60383;46.626;18.866;2023-02-02T06:56:39;100473.50;;;3.18;85.70
58072;BME280;60383;46.626;18.866;2023-02-02T06:59:05;100462.53;;;3.19;85.41
58072;BME280;60383;46.626;18.866;2023-02-02T07:01:30;100464.94;;;3.24;84.97
58072;BME280;60383;46.626;18.866;2023-02-02T07:03:56;100475.03;;;3.22;84.92
58072;BME280;60383;46.626;18.866;2023-02-02T07:06:24;100481.50;;;3.19;84.96
58072;BME280;60383;46.626;18.866;2023-02-02T07:08:50;100473.81;;;3.00;85.62
58072;BME280;60383;46.626;18.866;2023-02-02T07:11:16;100484.56;;;3.15;85.56
58072;BME280;60383;46.626;18.866;2023-02-02T07:13:46;100473.06;;;3.24;85.13
58072;BME280;60383;46.626;18.866;2023-02-02T07:16:13;100478.13;;;3.16;85.38
58072;BME280;60383;46.626;18.866;2023-02-02T07:18:40;100478.03;;;3.04;85.97
58072;BME280;60383;46.626;18.866;2023-02-02T07:21:07;100481.19;;;3.11;86.16
58072;BME280;60383;46.626;18.866;2023-02-02T07:23:33;100474.91;;;3.24;85.39
58072;BME280;60383;46.626;18.866;2023-02-02T07:26:07;100474.25;;;3.20;85.25
58072;BME280;60383;46.626;18.866;2023-02-02T07:28:32;100473.25;;;3.34;84.37
58072;BME280;60383;46.626;18.866;2023-02-02T07:30:59;100474.22;;;3.33;84.95
58072;BME280;60383;46.626;18.866;2023-02-02T07:33:25;100469.03;;;3.17;84.71
58072;BME280;60383;46.626;18.866;2023-02-02T07:35:51;100464.06;;;3.24;84.96
58072;BME280;60383;46.626;18.866;2023-02-02T07:38:17;100463.00;;;3.26;85.12
58072;BME280;60383;46.626;18.866;2023-02-02T07:40:42;100459.72;;;3.34;84.62
58072;BME280;60383;46.626;18.866;2023-02-02T07:43:10;100453.66;;;3.43;85.96
58072;BME280;60383;46.626;18.866;2023-02-02T07:45:36;100450.94;;;3.43;84.56
58072;BME280;60383;46.626;18.866;2023-02-02T07:48:02;100457.66;;;3.38;84.12
58072;BME280;60383;46.626;18.866;2023-02-02T07:50:29;100463.84;;;3.40;83.68
58072;BME280;60383;46.626;18.866;2023-02-02T07:52:55;100466.09;;;3.59;82.45
58072;BME280;60383;46.626;18.866;2023-02-02T07:55:22;100469.34;;;4.01;80.07
58072;BME280;60383;46.626;18.866;2023-02-02T07:57:50;100479.25;;;5.20;75.26
58072;BME280;60383;46.626;18.866;2023-02-02T08:00:16;100481.97;;;5.88;73.45
58072;BME280;60383;46.626;18.866;2023-02-02T08:02:42;100476.88;;;6.50;69.90
58072;BME280;60383;46.626;18.866;2023-02-02T08:05:07;100491.03;;;6.86;67.45
58072;BME280;60383;46.626;18.866;2023-02-02T08:07:33;100486.22;;;7.11;66.70
58072;BME280;60383;46.626;18.866;2023-02-02T08:09:59;100498.56;;;7.37;67.06
58072;BME280;60383;46.626;18.866;2023-02-02T08:12:24;100495.94;;;7.56;65.37
58072;BME280;60383;46.626;18.866;2023-02-02T08:14:50;100493.72;;;7.81;65.24
58072;BME280;60383;46.626;18.866;2023-02-02T08:17:16;100497.69;;;8.08;63.34
58072;BME280;60383;46.626;18.866;2023-02-02T08:19:41;100495.84;;;8.18;62.81
58072;BME280;60383;46.626;18.866;2023-02-02T08:22:07;100498.19;;;8.32;63.09
58072;BME280;60383;46.626;18.866;2023-02-02T08:24:32;100494.94;;;8.68;61.11
58072;BME280;60383;46.626;18.866;2023-02-02T08:26:58;100489.88;;;8.93;59.08
58072;BME280;60383;46.626;18.866;2023-02-02T08:29:24;100475.78;;;8.98;58.24
58072;BME280;60383;46.626;18.866;2023-02-02T08:31:49;100475.88;;;9.25;58.22
58072;BME280;60383;46.626;18.866;2023-02-02T08:34:15;100473.38;;;8.75;57.54
58072;BME280;60383;46.626;18.866;2023-02-02T08:36:40;100471.91;;;8.41;58.60
58072;BME280;60383;46.626;18.866;2023-02-02T08:39:09;100472.25;;;8.58;58.79
58072;BME280;60383;46.626;18.866;2023-02-02T08:41:35;100472.91;;;8.89;57.95
58072;BME280;60383;46.626;18.866;2023-02-02T08:44:05;100440.19;;;8.60;57.26
58072;BME280;60383;46.626;18.866;2023-02-02T08:46:30;100450.09;;;8.71;58.25
58072;BME280;60383;46.626;18.866;2023-02-02T08:48:56;100457.28;;;8.52;57.07
58072;BME280;60383;46.626;18.866;2023-02-02T08:51:21;100443.63;;;8.72;58.12
58072;BME280;60383;46.626;18.866;2023-02-02T08:53:47;100443.78;;;8.60;56.22
58072;BME280;60383;46.626;18.866;2023-02-02T08:56:17;100439.72;;;8.45;55.41
58072;BME280;60383;46.626;18.866;2023-02-02T08:58:44;100440.56;;;8.45;55.95
58072;BME280;60383;46.626;18.866;2023-02-02T09:01:15;100444.59;;;8.31;56.56
58072;BME280;60383;46.626;18.866;2023-02-02T09:03:41;100450.78;;;8.43;55.73
58072;BME280;60383;46.626;18.866;2023-02-02T09:06:11;100447.50;;;8.79;55.13
58072;BME280;60383;46.626;18.866;2023-02-02T09:08:38;100456.53;;;8.89;53.48
58072;BME280;60383;46.626;18.866;2023-02-02T09:11:09;100457.00;;;8.85;53.75
58072;BME280;60383;46.626;18.866;2023-02-02T09:13:36;100469.63;;;8.95;53.27
58072;BME280;60383;46.626;18.866;2023-02-02T09:16:03;100478.22;;;9.10;53.68
58072;BME280;60383;46.626;18.866;2023-02-02T09:18:29;100488.38;;;9.28;53.82
58072;BME280;60383;46.626;18.866;2023-02-02T09:20:58;100488.63;;;9.45;51.77
58072;BME280;60383;46.626;18.866;2023-02-02T09:23:25;100490.53;;;9.24;51.86
58072;BME280;60383;46.626;18.866;2023-02-02T09:25:51;100487.69;;;9.26;52.01
58072;BME280;60383;46.626;18.866;2023-02-02T09:28:16;100506.78;;;9.36;51.55
58072;BME280;60383;46.626;18.866;2023-02-02T09:30:42;100503.59;;;9.40;51.79
58072;BME280;60383;46.626;18.866;2023-02-02T09:33:08;100502.03;;;9.38;51.73
58072;BME280;60383;46.626;18.866;2023-02-02T09:35:33;100502.31;;;9.45;51.56
58072;BME280;60383;46.626;18.866;2023-02-02T09:37:58;100502.88;;;9.48;51.84
58072;BME280;60383;46.626;18.866;2023-02-02T09:40:24;100515.13;;;9.34;51.98
58072;BME280;60383;46.626;18.866;2023-02-02T09:43:04;100512.59;;;9.61;51.47
58072;BME280;60383;46.626;18.866;2023-02-02T09:48:23;100514.88;;;9.75;50.68
58072;BME280;60383;46.626;18.866;2023-02-02T09:50:58;100520.81;;;9.61;50.00
58072;BME280;60383;46.626;18.866;2023-02-02T09:56:10;100527.50;;;9.86;50.49
58072;BME280;60383;46.626;18.866;2023-02-02T09:59:01;100514.66;;;9.86;50.83
58072;BME280;60383;46.626;18.866;2023-02-02T10:01:33;100521.34;;;9.74;49.85
58072;BME280;60383;46.626;18.866;2023-02-02T10:04:24;100527.13;;;9.99;50.42
58072;BME280;60383;46.626;18.866;2023-02-02T10:06:54;100516.72;;;9.84;48.59
58072;BME280;60383;46.626;18.866;2023-02-02T10:11:57;100515.19;;;10.00;49.42
58072;BME280;60383;46.626;18.866;2023-02-02T10:14:33;100518.91;;;10.09;48.60
58072;BME280;60383;46.626;18.866;2023-02-02T10:19:49;100504.28;;;10.46;46.17
58072;BME280;60383;46.626;18.866;2023-02-02T10:22:22;100509.16;;;10.88;47.20
58072;BME280;60383;46.626;18.866;2023-02-02T10:24:49;100503.13;;;10.84;46.05
58072;BME280;60383;46.626;18.866;2023-02-02T10:27:16;100498.19;;;10.70;45.79
58072;BME280;60383;46.626;18.866;2023-02-02T10:32:43;100503.84;;;10.68;44.85
58072;BME280;60383;46.626;18.866;2023-02-02T10:35:34;100494.66;;;10.42;44.79
58072;BME280;60383;46.626;18.866;2023-02-02T10:41:04;100486.31;;;10.79;45.47
58072;BME280;60383;46.626;18.866;2023-02-02T10:46:31;100522.63;;;10.63;46.49
58072;BME280;60383;46.626;18.866;2023-02-02T10:51:56;100502.56;;;10.81;44.92
58072;BME280;60383;46.626;18.866;2023-02-02T10:54:46;100507.66;;;10.76;45.00
58072;BME280;60383;46.626;18.866;2023-02-02T10:57:21;100502.19;;;10.76;46.47
58072;BME280;60383;46.626;18.866;2023-02-02T11:02:30;100518.84;;;10.46;45.25
58072;BME280;60383;46.626;18.866;2023-02-02T11:04:56;100508.19;;;10.43;45.41
58072;BME280;60383;46.626;18.866;2023-02-02T11:07:40;100504.28;;;10.64;43.69
58072;BME280;60383;46.626;18.866;2023-02-02T11:10:06;100497.78;;;10.47;43.81
58072;BME280;60383;46.626;18.866;2023-02-02T11:12:34;100519.69;;;10.19;44.60
58072;BME280;60383;46.626;18.866;2023-02-02T11:15:07;100507.56;;;10.49;45.03
58072;BME280;60383;46.626;18.866;2023-02-02T11:17:33;100519.47;;;10.02;45.25
58072;BME280;60383;46.626;18.866;2023-02-02T11:19:59;100518.94;;;9.71;46.06
58072;BME280;60383;46.626;18.866;2023-02-02T11:22:36;100503.53;;;9.70;46.34
58072;BME280;60383;46.626;18.866;2023-02-02T11:25:42;100508.91;;;9.89;46.37
58072;BME280;60383;46.626;18.866;2023-02-02T11:28:33;100506.22;;;10.35;46.54
58072;BME280;60383;46.626;18.866;2023-02-02T11:31:00;100513.16;;;10.30;45.55
58072;BME280;60383;46.626;18.866;2023-02-02T11:33:29;100513.44;;;10.36;46.09
58072;BME280;60383;46.626;18.866;2023-02-02T11:36:16;100511.38;;;10.38;45.36
58072;BME280;60383;46.626;18.866;2023-02-02T11:38:43;100516.88;;;10.38;45.67
58072;BME280;60383;46.626;18.866;2023-02-02T11:41:09;100511.66;;;10.45;45.22
58072;BME280;60383;46.626;18.866;2023-02-02T11:43:47;100507.72;;;10.48;45.81
58072;BME280;60383;46.626;18.866;2023-02-02T11:46:22;100504.66;;;10.33;45.95
58072;BME280;60383;46.626;18.866;2023-02-02T11:49:06;100502.41;;;10.46;45.41
58072;BME280;60383;46.626;18.866;2023-02-02T11:51:37;100491.59;;;10.45;45.36
58072;BME280;60383;46.626;18.866;2023-02-02T11:54:17;100491.94;;;10.42;44.78
58072;BME280;60383;46.626;18.866;2023-02-02T11:56:50;100484.56;;;10.42;43.99
58072;BME280;60383;46.626;18.866;2023-02-02T11:59:40;100480.03;;;10.51;45.78
58072;BME280;60383;46.626;18.866;2023-02-02T12:02:29;100486.63;;;10.30;44.54
58072;BME280;60383;46.626;18.866;2023-02-02T12:05:13;100479.31;;;10.03;44.60
58072;BME280;60383;46.626;18.866;2023-02-02T12:07:41;100488.19;;;9.87;45.89
58072;BME280;60383;46.626;18.866;2023-02-02T12:10:28;100480.78;;;9.97;45.99
58072;BME280;60383;46.626;18.866;2023-02-02T12:13:06;100485.13;;;9.90;46.29
58072;BME280;60383;46.626;18.866;2023-02-02T12:18:25;100472.31;;;9.63;47.10
58072;BME280;60383;46.626;18.866;2023-02-02T12:21:15;100491.34;;;9.54;47.16
58072;BME280;60383;46.626;18.866;2023-02-02T12:26:22;100485.19;;;9.80;46.58
58072;BME280;60383;46.626;18.866;2023-02-02T12:29:06;100485.06;;;9.72;48.13
58072;BME280;60383;46.626;18.866;2023-02-02T12:31:48;100485.78;;;9.74;47.91
58072;BME280;60383;46.626;18.866;2023-02-02T12:34:31;100502.75;;;9.78;47.24
58072;BME280;60383;46.626;18.866;2023-02-02T12:48:12;100491.75;;;9.59;48.09
58072;BME280;60383;46.626;18.866;2023-02-02T12:50:52;100505.03;;;9.45;47.69
58072;BME280;60383;46.626;18.866;2023-02-02T12:53:43;100498.78;;;9.05;48.83
58072;BME280;60383;46.626;18.866;2023-02-02T12:56:22;100500.25;;;8.70;49.18
58072;BME280;60383;46.626;18.866;2023-02-02T13:07:51;100508.69;;;8.37;51.69
58072;BME280;60383;46.626;18.866;2023-02-02T13:10:25;100506.91;;;8.17;51.24
58072;BME280;60383;46.626;18.866;2023-02-02T13:13:00;100511.22;;;8.19;51.80
58072;BME280;60383;46.626;18.866;2023-02-02T13:15:40;100510.53;;;8.37;50.87
58072;BME280;60383;46.626;18.866;2023-02-02T13:18:23;100500.44;;;8.27;50.31
58072;BME280;60383;46.626;18.866;2023-02-02T13:20:52;100516.22;;;8.14;50.46
58072;BME280;60383;46.626;18.866;2023-02-02T13:23:23;100526.44;;;8.12;50.92
58072;BME280;60383;46.626;18.866;2023-02-02T13:28:34;100519.59;;;7.87;51.47
58072;BME280;60383;46.626;18.866;2023-02-02T13:31:05;100537.75;;;7.76;50.57
58072;BME280;60383;46.626;18.866;2023-02-02T13:33:34;100541.91;;;7.49;51.92
58072;BME280;60383;46.626;18.866;2023-02-02T13:36:22;100540.28;;;7.58;51.37
58072;BME280;60383;46.626;18.866;2023-02-02T13:38:53;100545.53;;;7.50;51.61
58072;BME280;60383;46.626;18.866;2023-02-02T13:41:21;100542.47;;;7.43;51.97
58072;BME280;60383;46.626;18.866;2023-02-02T13:54:36;100542.09;;;7.79;51.67
58072;BME280;60383;46.626;18.866;2023-02-02T14:02:32;100544.09;;;7.77;51.85
58072;BME280;60383;46.626;18.866;2023-02-02T14:05:04;100556.03;;;7.86;51.05
58072;BME280;60383;46.626;18.866;2023-02-02T14:07:42;100546.13;;;7.84;51.51
58072;BME280;60383;46.626;18.866;2023-02-02T14:12:50;100547.38;;;7.71;51.28
58072;BME280;60383;46.626;18.866;2023-02-02T14:15:17;100553.34;;;7.64;51.61
58072;BME280;60383;46.626;18.866;2023-02-02T14:20:41;100556.75;;;7.14;52.48
58072;BME280;60383;46.626;18.866;2023-02-02T14:23:48;100557.94;;;7.22;52.92
58072;BME280;60383;46.626;18.866;2023-02-02T14:26:17;100558.50;;;7.37;52.98
58072;BME280;60383;46.626;18.866;2023-02-02T14:28:49;100570.13;;;7.39;52.28
58072;BME280;60383;46.626;18.866;2023-02-02T14:31:29;100554.22;;;7.23;52.17
58072;BME280;60383;46.626;18.866;2023-02-02T14:34:36;100559.91;;;7.10;53.37
58072;BME280;60383;46.626;18.866;2023-02-02T14:37:14;100561.28;;;7.04;52.48
58072;BME280;60383;46.626;18.866;2023-02-02T14:45:38;100562.06;;;6.95;53.54
58072;BME280;60383;46.626;18.866;2023-02-02T14:48:09;100583.19;;;6.70;54.29
58072;BME280;60383;46.626;18.866;2023-02-02T14:55:48;100586.44;;;6.64;53.83
58072;BME280;60383;46.626;18.866;2023-02-02T15:01:25;100583.84;;;6.51;54.59
58072;BME280;60383;46.626;18.866;2023-02-02T15:04:16;100592.72;;;6.76;54.16
58072;BME280;60383;46.626;18.866;2023-02-02T15:06:47;100595.00;;;6.48;54.23